Time;durP1;ratioP1;P1;durP2;ratioP2;P2;SDS_P1;SDS_P2;PMS_P1;PMS_P2;Temp;Humidity;BMP_temperature;BMP_pressure;BME280_temperature;BME280_humidity;BME280_pressure;Samples;Min_cycle;Max_cycle;Signal;HPM_P1;HPM_P2
2022/08/15 00:01:27;;;;;;;12.60;7.13;;;19.50;99.90;;;;;;4982969;28;20064;-83
2022/08/15 00:03:56;;;;;;;13.40;7.30;;;19.50;99.90;;;;;;4983063;28;20038;-83
2022/08/15 00:06:30;;;;;;;12.57;7.05;;;19.50;99.90;;;;;;4993282;28;20034;-83
2022/08/15 00:09:00;;;;;;;12.57;7.50;;;19.60;99.90;;;;;;4991925;28;20058;-83
2022/08/15 00:11:35;;;;;;;11.43;6.82;;;19.70;99.90;;;;;;4993105;28;20094;-83
2022/08/15 00:14:09;;;;;;;12.27;6.38;;;19.70;99.90;;;;;;4998225;28;20049;-83
2022/08/15 00:16:37;;;;;;;11.32;7.10;;;19.80;99.90;;;;;;4992085;28;20034;-83
2022/08/15 00:19:07;;;;;;;11.77;6.90;;;19.90;99.90;;;;;;4991585;28;20053;-83
2022/08/15 00:21:35;;;;;;;12.02;6.97;;;19.90;99.90;;;;;;4987440;28;20022;-83
2022/08/15 00:24:01;;;;;;;15.50;6.85;;;20.00;99.90;;;;;;4989600;28;20046;-83
2022/08/15 00:26:26;;;;;;;11.88;6.85;;;20.10;99.90;;;;;;4992129;28;20105;-83
2022/08/15 00:28:52;;;;;;;12.35;6.47;;;20.50;99.90;;;;;;4988838;28;20054;-83
2022/08/15 00:31:17;;;;;;;12.57;7.00;;;20.60;99.90;;;;;;4989231;28;20140;-83
2022/08/15 00:33:44;;;;;;;11.70;6.95;;;20.70;99.90;;;;;;4992565;28;20026;-83
2022/08/15 00:36:10;;;;;;;14.02;7.15;;;20.60;99.90;;;;;;4991035;28;20081;-83
2022/08/15 00:38:36;;;;;;;11.50;6.70;;;20.50;99.90;;;;;;4992300;28;20030;-83
2022/08/15 00:43:57;;;;;;;15.38;6.82;;;20.40;99.90;;;;;;4986916;28;20100;-83
2022/08/15 00:46:25;;;;;;;11.20;7.20;;;20.40;99.90;;;;;;4985583;28;20113;-83
2022/08/15 00:48:51;;;;;;;11.27;6.90;;;20.50;99.90;;;;;;4991033;28;20031;-83
2022/08/15 00:51:24;;;;;;;12.20;6.72;;;20.50;99.90;;;;;;4988489;28;20031;-83
2022/08/15 00:53:56;;;;;;;11.15;6.60;;;20.50;99.90;;;;;;4992012;28;20035;-83
2022/08/15 00:56:28;;;;;;;12.02;6.50;;;20.50;99.90;;;;;;4983797;28;20022;-83
2022/08/15 00:58:54;;;;;;;11.10;6.93;;;20.50;99.90;;;;;;4991554;28;20022;-83
2022/08/15 01:01:22;;;;;;;14.32;6.93;;;20.50;99.90;;;;;;4988921;28;20018;-83
2022/08/15 01:03:48;;;;;;;12.95;6.70;;;20.60;99.90;;;;;;4985732;28;20038;-83
2022/08/15 01:06:16;;;;;;;10.80;6.40;;;20.70;99.90;;;;;;4989013;28;20049;-83
2022/08/15 01:08:45;;;;;;;13.77;6.90;;;20.80;99.90;;;;;;4990550;28;20054;-83
2022/08/15 01:11:31;;;;;;;11.93;6.75;;;20.80;99.90;;;;;;4991862;28;20809;-83
2022/08/15 01:14:01;;;;;;;11.00;6.90;;;20.80;99.90;;;;;;4992248;28;20034;-83
2022/08/15 01:16:28;;;;;;;11.05;6.70;;;20.80;99.90;;;;;;4994411;28;20173;-83
2022/08/15 01:18:54;;;;;;;12.30;7.25;;;20.70;99.90;;;;;;4983918;28;20486;-83
2022/08/15 01:21:38;;;;;;;15.02;6.68;;;20.70;99.90;;;;;;4994748;28;20037;-83
2022/08/15 01:24:15;;;;;;;12.23;7.03;;;20.70;99.90;;;;;;4993338;28;20026;-83
2022/08/15 01:26:41;;;;;;;12.63;7.28;;;20.70;99.90;;;;;;5002969;28;20116;-83
2022/08/15 01:29:07;;;;;;;14.23;7.50;;;20.70;99.90;;;;;;4981345;28;20089;-83
2022/08/15 01:31:34;;;;;;;15.88;7.25;;;20.70;99.90;;;;;;4994998;28;20533;-83
2022/08/15 01:34:00;;;;;;;12.57;6.72;;;20.60;99.90;;;;;;4990980;28;20057;-84
2022/08/15 01:36:28;;;;;;;13.90;6.97;;;20.60;99.90;;;;;;4994546;28;20081;-83
2022/08/15 01:39:07;;;;;;;12.18;7.40;;;20.60;99.90;;;;;;4990266;28;20776;-83
2022/08/15 01:41:44;;;;;;;12.05;7.13;;;20.70;99.90;;;;;;4995644;28;20452;-83
2022/08/15 01:44:28;;;;;;;13.05;7.50;;;20.60;99.90;;;;;;4994910;28;20507;-83
2022/08/15 01:47:09;;;;;;;14.55;7.32;;;20.40;99.90;;;;;;4985423;28;20086;-83
2022/08/15 01:49:46;;;;;;;13.75;7.32;;;20.30;99.90;;;;;;5002210;28;20454;-83
2022/08/15 01:52:14;;;;;;;15.40;6.97;;;20.30;99.90;;;;;;4991148;28;20062;-83
2022/08/15 01:54:41;;;;;;;12.85;7.28;;;20.20;99.90;;;;;;4991108;28;20045;-83
2022/08/15 01:57:08;;;;;;;16.52;7.18;;;20.20;99.90;;;;;;4992729;28;20014;-83
2022/08/15 01:59:34;;;;;;;12.15;7.15;;;20.20;99.90;;;;;;4988394;28;20045;-83
2022/08/15 02:02:02;;;;;;;12.63;7.00;;;20.20;99.90;;;;;;4990950;28;20474;-83
2022/08/15 02:04:36;;;;;;;11.82;7.28;;;20.10;99.90;;;;;;4992883;28;20054;-83
2022/08/15 02:07:17;;;;;;;13.23;6.60;;;20.40;99.90;;;;;;4998862;28;20030;-83
2022/08/15 02:09:45;;;;;;;12.75;6.82;;;20.80;99.90;;;;;;4984666;28;20026;-83
2022/08/15 02:12:11;;;;;;;11.70;6.50;;;21.10;99.90;;;;;;5001966;28;20059;-83
2022/08/15 02:14:41;;;;;;;12.35;6.53;;;21.00;99.90;;;;;;4992945;28;20042;-83
2022/08/15 02:17:08;;;;;;;;;;;21.10;99.90;;;;;;4990029;28;20069;-83
2022/08/15 02:19:35;;;;;;;12.73;6.68;;;21.10;99.90;;;;;;4993280;28;19905;-83
2022/08/15 02:22:02;;;;;;;13.02;7.28;;;21.00;99.90;;;;;;4992039;28;20553;-83
2022/08/15 02:24:28;;;;;;;11.57;6.70;;;20.80;99.90;;;;;;4993650;28;20546;-83
2022/08/15 02:26:54;;;;;;;11.95;6.47;;;20.70;99.90;;;;;;4991227;28;20038;-82
2022/08/15 02:29:23;;;;;;;13.48;7.18;;;20.60;99.90;;;;;;4983446;28;20033;-82
2022/08/15 02:31:51;;;;;;;12.75;7.40;;;20.60;99.90;;;;;;4986049;28;20509;-83
2022/08/15 02:34:18;;;;;;;12.88;6.75;;;20.50;99.90;;;;;;4986332;28;20113;-83
2022/08/15 02:36:45;;;;;;;11.90;6.88;;;20.40;99.90;;;;;;4990093;28;20106;-83
2022/08/15 02:39:11;;;;;;;11.30;7.07;;;20.50;99.90;;;;;;4989601;28;20037;-83
2022/08/15 02:41:41;;;;;;;14.35;7.03;;;20.60;99.90;;;;;;4992079;28;20038;-83
2022/08/15 02:44:08;;;;;;;13.40;7.18;;;20.50;99.90;;;;;;4994963;28;20085;-83
2022/08/15 02:46:37;;;;;;;12.52;7.05;;;20.50;99.90;;;;;;4990891;28;20642;-83
2022/08/15 02:49:11;;;;;;;12.38;7.47;;;20.50;99.90;;;;;;4985492;28;20022;-83
2022/08/15 02:51:39;;;;;;;12.35;7.28;;;20.70;99.90;;;;;;4986057;28;20479;-83
2022/08/15 02:54:06;;;;;;;13.35;7.70;;;20.60;99.90;;;;;;4989547;28;20030;-83
2022/08/15 02:56:33;;;;;;;11.77;7.00;;;20.50;99.90;;;;;;4981952;28;20026;-83
2022/08/15 02:58:59;;;;;;;12.88;7.70;;;20.30;99.90;;;;;;4988648;28;20078;-83
2022/08/15 03:01:26;;;;;;;12.70;7.55;;;20.30;99.90;;;;;;4989567;28;20069;-83
2022/08/15 03:03:54;;;;;;;14.85;7.70;;;20.20;99.90;;;;;;4992238;28;20058;-83
2022/08/15 03:06:25;;;;;;;11.52;7.03;;;20.10;99.90;;;;;;4993624;28;20406;-83
2022/08/15 03:08:53;;;;;;;11.90;6.45;;;20.30;99.90;;;;;;4985241;28;20533;-82
2022/08/15 03:11:19;;;;;;;11.93;6.93;;;20.50;99.90;;;;;;4980315;28;20018;-83
2022/08/15 03:13:45;;;;;;;12.40;7.38;;;20.70;99.90;;;;;;4989093;28;20184;-82
2022/08/15 03:16:13;;;;;;;11.55;6.75;;;20.70;99.90;;;;;;4985479;28;20509;-83
2022/08/15 03:18:42;;;;;;;12.88;6.90;;;20.70;99.90;;;;;;4990692;28;20034;-83
2022/08/15 03:21:12;;;;;;;11.65;7.10;;;20.60;99.90;;;;;;4990633;28;20022;-83
2022/08/15 03:23:42;;;;;;;12.05;6.07;;;20.40;99.90;;;;;;4991547;28;20289;-83
2022/08/15 03:26:08;;;;;;;;;;;20.40;99.90;;;;;;4991522;28;20032;-83
2022/08/15 03:28:33;;;;;;;14.95;6.38;;;20.60;99.90;;;;;;4988615;28;20181;-83
2022/08/15 03:31:02;;;;;;;15.18;6.20;;;20.70;99.90;;;;;;4999199;28;20082;-83
2022/08/15 03:33:29;;;;;;;11.27;6.03;;;20.60;99.90;;;;;;4991132;28;20046;-83
2022/08/15 03:35:55;;;;;;;10.80;5.97;;;20.40;99.90;;;;;;4991162;28;20029;-83
2022/08/15 03:38:21;;;;;;;10.85;6.53;;;20.40;99.90;;;;;;4984148;28;20025;-82
2022/08/15 03:40:49;;;;;;;11.13;5.55;;;20.60;99.90;;;;;;4982688;28;20075;-82
2022/08/15 03:43:21;;;;;;;10.77;5.80;;;20.70;99.90;;;;;;4990725;28;20018;-83
2022/08/15 03:45:53;;;;;;;10.15;5.43;;;20.90;99.90;;;;;;4992645;28;20030;-83
2022/08/15 03:48:20;;;;;;;13.07;5.60;;;21.10;99.90;;;;;;4988136;28;20029;-83
2022/08/15 03:50:46;;;;;;;10.20;5.43;;;21.00;99.90;;;;;;4988098;28;20545;-83
2022/08/15 03:53:12;;;;;;;10.63;5.35;;;20.80;99.90;;;;;;4990940;28;20054;-82
2022/08/15 03:55:40;;;;;;;13.43;5.20;;;20.70;99.90;;;;;;4987388;28;20390;-82
2022/08/15 03:58:07;;;;;;;10.15;5.70;;;20.60;99.90;;;;;;4989157;28;20454;-82
2022/08/15 04:00:37;;;;;;;10.07;5.10;;;20.50;99.90;;;;;;4988479;28;20034;-83
2022/08/15 04:03:07;;;;;;;12.32;4.93;;;20.50;99.90;;;;;;4985142;28;20081;-83
2022/08/15 04:05:35;;;;;;;10.70;5.22;;;20.50;99.90;;;;;;4996737;28;20090;-83
2022/08/15 04:08:02;;;;;;;36.97;6.20;;;20.50;99.90;;;;;;4987951;28;20538;-83
2022/08/15 04:10:29;;;;;;;13.43;5.10;;;20.50;99.90;;;;;;4993673;28;20033;-84
2022/08/15 04:12:55;;;;;;;11.23;5.20;;;20.50;99.90;;;;;;4992981;28;20106;-84
2022/08/15 04:15:21;;;;;;;10.27;5.25;;;20.40;99.90;;;;;;4990964;28;20065;-84
2022/08/15 04:17:47;;;;;;;12.25;4.88;;;20.40;99.90;;;;;;4990889;28;20038;-84
2022/08/15 04:20:13;;;;;;;10.48;5.00;;;20.60;99.90;;;;;;4989945;28;20821;-83
2022/08/15 04:22:47;;;;;;;11.02;5.03;;;20.70;99.90;;;;;;4986136;28;20035;-83
2022/08/15 04:25:27;;;;;;;10.55;5.00;;;20.60;99.90;;;;;;4995000;28;20499;-85
2022/08/15 04:27:56;;;;;;;10.25;4.63;;;20.60;99.90;;;;;;4991784;28;20061;-84
2022/08/15 04:30:25;;;;;;;9.35;4.65;;;20.90;99.90;;;;;;4985066;28;20034;-84
2022/08/15 04:32:53;;;;;;;10.93;4.43;;;21.00;99.90;;;;;;4993894;28;20018;-84
2022/08/15 04:35:19;;;;;;;11.88;5.00;;;21.00;99.90;;;;;;4983297;28;20605;-83
2022/08/15 04:37:45;;;;;;;8.52;4.60;;;20.90;99.90;;;;;;4984568;28;20032;-84
2022/08/15 04:40:14;;;;;;;12.50;4.95;;;21.00;99.90;;;;;;4985011;28;20027;-84
2022/08/15 04:42:58;;;;;;;10.30;4.53;;;20.90;99.90;;;;;;4987085;28;20030;-84
2022/08/15 04:45:25;;;;;;;8.23;4.30;;;20.80;99.90;;;;;;4988700;28;20051;-83
2022/08/15 04:48:08;;;;;;;10.38;4.40;;;20.90;99.90;;;;;;4992583;28;20030;-84
2022/08/15 04:50:38;;;;;;;10.57;4.78;;;20.80;99.90;;;;;;4994267;28;20125;-84
2022/08/15 04:53:05;;;;;;;9.18;4.50;;;20.90;99.90;;;;;;4995031;28;20553;-84
2022/08/15 04:55:31;;;;;;;13.05;4.85;;;20.80;99.90;;;;;;4997106;28;20031;-84
2022/08/15 04:57:58;;;;;;;10.57;4.15;;;20.80;99.90;;;;;;4991635;28;20058;-83
2022/08/15 05:00:27;;;;;;;10.93;4.28;;;20.70;99.90;;;;;;4994065;28;20036;-84
2022/08/15 05:03:11;;;;;;;10.02;4.53;;;20.60;99.90;;;;;;4997051;28;20030;-84
2022/08/15 05:05:44;;;;;;;10.75;4.55;;;20.80;99.90;;;;;;4988775;28;20059;-83
2022/08/15 05:08:10;;;;;;;10.88;4.57;;;20.80;99.90;;;;;;4987561;28;20081;-85
2022/08/15 05:10:36;;;;;;;8.57;4.30;;;20.80;99.90;;;;;;4991488;28;20047;-83
2022/08/15 05:13:13;;;;;;;12.98;4.78;;;20.80;99.90;;;;;;4991782;28;20635;-83
2022/08/15 05:15:41;;;;;;;11.38;4.28;;;20.90;99.90;;;;;;4992153;28;20038;-83
2022/08/15 05:18:07;;;;;;;8.32;4.45;;;21.10;99.90;;;;;;4995674;28;20030;-83
2022/08/15 05:20:32;;;;;;;9.73;4.53;;;21.30;99.90;;;;;;4993533;28;20041;-84
2022/08/15 05:23:00;;;;;;;10.27;4.00;;;21.20;99.90;;;;;;4983682;28;20027;-83
2022/08/15 05:25:26;;;;;;;11.68;4.03;;;21.20;99.90;;;;;;4991157;28;20495;-83
2022/08/15 05:27:52;;;;;;;11.00;4.30;;;21.20;99.90;;;;;;4992926;28;20022;-83
2022/08/15 05:30:19;;;;;;;13.32;4.70;;;21.10;99.90;;;;;;4995638;28;20451;-84
2022/08/15 05:32:45;;;;;;;10.32;4.68;;;21.00;99.90;;;;;;4994687;28;20434;-84
2022/08/15 05:35:11;;;;;;;10.30;4.43;;;21.00;99.90;;;;;;4991495;28;20046;-83
2022/08/15 05:37:37;;;;;;;10.98;4.53;;;21.10;99.90;;;;;;4979954;28;20454;-84
2022/08/15 05:40:06;;;;;;;10.65;4.28;;;21.20;99.90;;;;;;4985655;28;20033;-83
2022/08/15 05:42:47;;;;;;;11.60;5.10;;;21.40;99.90;;;;;;4987248;28;20109;-83
2022/08/15 05:45:16;;;;;;;8.68;4.18;;;21.40;99.90;;;;;;4990787;28;20486;-83
2022/08/15 05:47:50;;;;;;;12.55;5.10;;;21.50;99.90;;;;;;4992748;28;20034;-84
2022/08/15 05:50:33;;;;;;;11.32;4.40;;;21.50;99.90;;;;;;5004973;28;20109;-83
2022/08/15 05:53:25;;;;;;;11.50;4.90;;;21.50;99.90;;;;;;4993684;28;20022;-84
2022/08/15 05:56:16;;;;;;;13.20;5.43;;;21.30;99.90;;;;;;4988188;28;20034;-83
2022/08/15 05:59:04;;;;;;;10.45;5.20;;;21.40;99.90;;;;;;4996562;28;20531;-83
2022/08/15 06:01:35;;;;;;;11.02;5.75;;;21.40;99.90;;;;;;4988879;28;20038;-82
2022/08/15 06:04:11;;;;;;;11.80;5.15;;;21.50;99.90;;;;;;4996521;28;20071;-82
2022/08/15 06:06:41;;;;;;;9.70;4.78;;;21.60;99.90;;;;;;4987376;28;20619;-80
2022/08/15 06:09:33;;;;;;;11.63;5.00;;;21.60;99.90;;;;;;4989464;28;20181;-80
2022/08/15 06:12:06;;;;;;;10.48;4.82;;;21.70;99.90;;;;;;4987592;28;20027;-80
2022/08/15 06:14:43;;;;;;;11.57;5.15;;;21.80;99.90;;;;;;4986336;28;20058;-80
2022/08/15 06:17:23;;;;;;;10.60;4.65;;;21.80;99.90;;;;;;4986620;28;20065;-81
2022/08/15 06:19:50;;;;;;;10.38;4.63;;;21.90;99.90;;;;;;4981142;28;20101;-80
2022/08/15 06:22:55;;;;;;;8.32;4.13;;;21.90;99.90;;;;;;4996715;28;20496;-80
2022/08/15 06:25:25;;;;;;;13.25;4.60;;;22.20;99.90;;;;;;4983285;28;20054;-81
2022/08/15 06:28:06;;;;;;;13.27;4.18;;;22.50;99.90;;;;;;4986156;28;20022;-81
2022/08/15 06:31:12;;;;;;;12.07;4.20;;;22.80;99.90;;;;;;5008489;28;20089;-81
2022/08/15 06:33:44;;;;;;;12.20;3.50;;;23.10;99.90;;;;;;4954675;28;20045;-81
2022/08/15 06:36:20;;;;;;;12.77;3.50;;;23.40;99.90;;;;;;4986216;28;20019;-81
2022/08/15 06:39:01;;;;;;;9.77;4.00;;;23.60;99.90;;;;;;4985052;28;20029;-81
2022/08/15 06:41:30;;;;;;;10.75;3.42;;;23.70;99.90;;;;;;4986776;28;20029;-81
2022/08/15 06:43:57;;;;;;;11.35;3.75;;;23.70;99.90;;;;;;4987867;28;20063;-81
2022/08/15 06:46:27;;;;;;;8.07;3.05;;;23.70;99.90;;;;;;4988274;28;20042;-81
2022/08/15 06:48:54;;;;;;;8.00;3.42;;;23.60;99.90;;;;;;4984993;28;20121;-81
2022/08/15 06:51:22;;;;;;;13.02;3.28;;;23.50;99.90;;;;;;4989827;28;20069;-80
2022/08/15 06:53:55;;;;;;;8.75;3.28;;;23.60;99.90;;;;;;4990215;28;20033;-81
2022/08/15 06:56:28;;;;;;;9.15;3.33;;;23.60;99.90;;;;;;4988527;28;20018;-81
2022/08/15 06:58:57;;;;;;;9.68;3.33;;;23.60;99.90;;;;;;4986852;28;20022;-80
2022/08/15 07:01:41;;;;;;;9.07;3.15;;;23.60;99.90;;;;;;4988550;28;20056;-80
2022/08/15 07:04:25;;;;;;;9.90;3.33;;;23.70;99.90;;;;;;4976301;28;20128;-81
2022/08/15 07:06:59;;;;;;;8.32;3.05;;;23.70;99.90;;;;;;4987936;28;20038;-81
2022/08/15 07:09:38;;;;;;;9.25;3.22;;;23.80;99.90;;;;;;4986370;28;20137;-81
2022/08/15 07:12:09;;;;;;;9.48;3.63;;;23.80;99.90;;;;;;4983390;28;20046;-81
2022/08/15 07:14:50;;;;;;;9.15;3.30;;;24.00;99.90;;;;;;4982670;28;20026;-81
2022/08/15 07:17:37;;;;;;;8.13;3.00;;;24.10;99.90;;;;;;4997910;28;20053;-81
2022/08/15 07:20:06;;;;;;;7.82;3.22;;;24.20;99.90;;;;;;4998336;28;20126;-80
2022/08/15 07:22:33;;;;;;;8.88;3.38;;;24.40;99.90;;;;;;4982116;28;20034;-81
2022/08/15 07:24:58;;;;;;;9.43;3.47;;;24.50;99.70;;;;;;4991442;28;20026;-81
2022/08/15 07:27:33;;;;;;;10.65;3.22;;;24.50;99.80;;;;;;4984947;28;20078;-80
2022/08/15 07:30:15;;;;;;;10.43;3.22;;;24.50;99.30;;;;;;4988678;28;20562;-81
2022/08/15 07:32:41;;;;;;;9.23;3.00;;;24.50;99.40;;;;;;4984085;28;20023;-81
2022/08/15 07:35:12;;;;;;;8.25;3.10;;;24.60;98.90;;;;;;4980979;28;20559;-81
2022/08/15 07:37:47;;;;;;;9.02;3.38;;;24.80;99.20;;;;;;4985415;28;20023;-81
2022/08/15 07:40:12;;;;;;;9.52;3.28;;;25.10;99.10;;;;;;4993714;28;20132;-81
2022/08/15 07:42:41;;;;;;;8.10;3.15;;;25.40;98.20;;;;;;4995869;28;20023;-81
2022/08/15 07:45:15;;;;;;;10.85;3.38;;;25.50;98.10;;;;;;4985231;28;20106;-81
2022/08/15 07:47:57;;;;;;;6.80;2.80;;;25.60;97.40;;;;;;4978152;28;20637;-81
2022/08/15 07:50:31;;;;;;;13.30;3.50;;;25.40;97.30;;;;;;4976179;28;20114;-81
2022/08/15 07:53:04;;;;;;;7.97;3.30;;;25.40;97.80;;;;;;4979287;28;20019;-81
2022/08/15 07:55:31;;;;;;;9.63;3.08;;;25.20;98.90;;;;;;4978350;28;20050;-81
2022/08/15 07:58:13;;;;;;;7.70;3.00;;;25.10;98.20;;;;;;4986607;28;20023;-81
2022/08/15 08:00:40;;;;;;;9.20;2.65;;;25.20;97.60;;;;;;4985833;28;20030;-82
2022/08/15 08:03:20;;;;;;;12.15;3.22;;;25.20;98.10;;;;;;4986493;28;20573;-81
2022/08/15 08:06:06;;;;;;;8.55;2.85;;;25.40;97.60;;;;;;4984111;28;20055;-81
2022/08/15 08:08:44;;;;;;;9.63;3.17;;;25.40;97.50;;;;;;4986100;28;20030;-81
2022/08/15 08:11:33;;;;;;;9.65;3.20;;;25.50;97.80;;;;;;4989833;28;20018;-81
2022/08/15 08:14:22;;;;;;;11.20;3.10;;;25.40;97.70;;;;;;4986834;28;20078;-80
2022/08/15 08:16:55;;;;;;;8.65;3.05;;;25.10;97.50;;;;;;4985277;28;20027;-80
2022/08/15 08:19:41;;;;;;;10.48;3.08;;;24.90;98.10;;;;;;4995385;28;20140;-80
2022/08/15 08:22:20;;;;;;;8.43;3.10;;;24.80;98.10;;;;;;4984782;28;20027;-81
2022/08/15 08:24:52;;;;;;;12.87;3.07;;;24.80;98.80;;;;;;4994796;28;20045;-81
2022/08/15 08:27:30;;;;;;;8.07;2.90;;;24.90;98.60;;;;;;4998231;28;20035;-81
2022/08/15 08:30:03;;;;;;;7.78;2.72;;;24.90;98.30;;;;;;5002999;28;20030;-81
2022/08/15 08:33:11;;;;;;;9.77;3.33;;;24.80;98.80;;;;;;4996812;28;20491;-81
2022/08/15 08:35:44;;;;;;;10.38;3.53;;;24.80;99.10;;;;;;5000311;28;20031;-81
2022/08/15 08:39:02;;;;;;;9.40;2.90;;;24.70;98.80;;;;;;4983144;28;20085;-81
2022/08/15 08:41:51;;;;;;;8.38;3.05;;;24.50;99.30;;;;;;4930919;29;20119;-81
2022/08/15 08:44:41;;;;;;;10.32;3.00;;;24.40;99.80;;;;;;4914483;29;20059;-81
2022/08/15 08:47:16;;;;;;;7.25;2.80;;;24.40;99.90;;;;;;4915373;29;20083;-81
2022/08/15 08:50:00;;;;;;;8.90;2.80;;;24.30;99.90;;;;;;4917589;29;20035;-81
2022/08/15 08:52:32;;;;;;;8.27;3.33;;;24.20;99.90;;;;;;4933613;29;20126;-80
2022/08/15 08:55:16;;;;;;;9.32;2.97;;;24.00;99.90;;;;;;4932746;29;20588;-80
2022/08/15 08:57:53;;;;;;;8.40;3.20;;;23.90;99.90;;;;;;4916716;29;20480;-81
2022/08/15 09:00:31;;;;;;;9.43;2.60;;;23.90;99.90;;;;;;4916639;29;20031;-81
2022/08/15 09:03:06;;;;;;;7.80;2.92;;;23.90;99.90;;;;;;4916940;29;20562;-80
2022/08/15 09:05:49;;;;;;;8.68;3.00;;;23.90;99.90;;;;;;4929980;29;20070;-81
2022/08/15 09:08:26;;;;;;;12.40;3.45;;;23.90;99.90;;;;;;4933169;29;20035;-81
2022/08/15 09:10:59;;;;;;;7.97;2.78;;;24.00;99.90;;;;;;4931884;28;20051;-80
2022/08/15 09:13:37;;;;;;;8.30;3.20;;;24.10;99.90;;;;;;4984875;28;20110;-81
2022/08/15 09:16:14;;;;;;;8.60;3.47;;;24.10;99.90;;;;;;4990955;28;20037;-80
2022/08/15 09:19:15;;;;;;;9.52;3.03;;;24.30;99.90;;;;;;4980738;28;20071;-81
2022/08/15 09:21:42;;;;;;;8.15;3.40;;;24.70;99.90;;;;;;4985191;28;20049;-81
2022/08/15 09:24:08;;;;;;;7.18;2.75;;;25.60;99.90;;;;;;4990729;28;20027;-81
2022/08/15 09:26:55;;;;;;;8.90;3.17;;;27.20;97.20;;;;;;4992312;28;20022;-81
2022/08/15 09:29:32;;;;;;;10.30;2.70;;;28.40;94.80;;;;;;4986743;28;20161;-81
2022/08/15 09:32:28;;;;;;;8.38;2.65;;;29.50;92.50;;;;;;4990013;28;20405;-81
2022/08/15 09:35:31;;;;;;;10.93;3.00;;;31.00;89.00;;;;;;4999897;28;20031;-81
2022/08/15 09:38:14;;;;;;;9.35;2.65;;;31.00;86.90;;;;;;5006402;28;20034;-81
2022/08/15 09:40:45;;;;;;;9.75;3.55;;;30.80;87.50;;;;;;4982716;28;20027;-81
2022/08/15 09:43:46;;;;;;;8.75;3.20;;;30.20;87.10;;;;;;4988700;28;20037;-81
2022/08/15 09:46:40;;;;;;;9.70;3.00;;;29.60;88.70;;;;;;4991531;28;20036;-81
2022/08/15 09:49:26;;;;;;;12.07;3.00;;;29.70;88.40;;;;;;4980537;28;20081;-81
2022/08/15 09:52:13;;;;;;;11.23;3.40;;;29.30;89.50;;;;;;4991469;28;20463;-81
2022/08/15 09:54:50;;;;;;;6.53;2.80;;;29.10;90.20;;;;;;4986267;28;20403;-81
2022/08/15 09:57:36;;;;;;;7.28;2.63;;;29.70;88.80;;;;;;4983740;28;20038;-81
2022/08/15 10:00:24;;;;;;;11.07;2.70;;;30.20;86.60;;;;;;4984273;28;20657;-81
2022/08/15 10:02:58;;;;;;;9.60;2.77;;;29.30;88.40;;;;;;4980499;28;20034;-81
2022/08/15 10:05:47;;;;;;;8.98;3.15;;;28.60;90.00;;;;;;4984854;28;20565;-81
2022/08/15 10:08:15;;;;;;;13.73;3.53;;;28.40;90.70;;;;;;4981437;28;20054;-81
2022/08/15 10:11:08;;;;;;;12.25;3.28;;;28.40;90.90;;;;;;4982997;28;20031;-81
2022/08/15 10:13:40;;;;;;;8.95;3.08;;;27.90;90.80;;;;;;4989669;28;20033;-81
2022/08/15 10:16:40;;;;;;;9.60;3.22;;;28.20;90.70;;;;;;4986030;28;20026;-82
2022/08/15 10:19:35;;;;;;;12.13;3.28;;;28.60;90.80;;;;;;4994600;28;20499;-82
2022/08/15 10:22:21;;;;;;;8.90;3.38;;;28.80;90.50;;;;;;4985161;28;20026;-82
2022/08/15 10:25:22;;;;;;;9.38;3.03;;;28.80;90.30;;;;;;4993349;28;20037;-81
2022/08/15 10:28:11;;;;;;;8.90;3.35;;;28.40;90.70;;;;;;4990231;28;20034;-81
2022/08/15 10:30:44;;;;;;;9.50;3.20;;;28.20;90.90;;;;;;4978476;28;20070;-82
2022/08/15 10:33:33;;;;;;;10.27;3.20;;;28.20;91.30;;;;;;4992036;28;20058;-82
2022/08/15 10:36:13;;;;;;;14.18;2.92;;;29.00;90.70;;;;;;4987335;28;20050;-81
2022/08/15 10:39:21;;;;;;;7.38;2.75;;;29.10;89.50;;;;;;4990927;28;20027;-81
2022/08/15 10:42:02;;;;;;;7.93;2.85;;;29.50;89.40;;;;;;4972598;28;20138;-81
2022/08/15 10:44:42;;;;;;;11.23;3.15;;;29.70;88.00;;;;;;5003057;28;20031;-81
2022/08/15 10:47:44;;;;;;;6.82;2.90;;;29.90;87.40;;;;;;5002786;28;20037;-81
2022/08/15 10:50:19;;;;;;;9.93;2.90;;;29.80;86.70;;;;;;4994834;28;20744;-81
2022/08/15 10:53:07;;;;;;;11.93;3.67;;;29.40;87.20;;;;;;4991512;28;20117;-81
2022/08/15 10:55:39;;;;;;;8.75;3.10;;;29.20;87.00;;;;;;4985267;28;20018;-81
2022/08/15 10:58:09;;;;;;;9.23;3.03;;;29.00;87.40;;;;;;4979721;28;20109;-81
2022/08/15 11:00:42;;;;;;;8.95;3.30;;;29.30;87.90;;;;;;5003168;28;20027;-81
2022/08/15 11:03:38;;;;;;;11.85;2.72;;;29.80;87.70;;;;;;4999499;28;20026;-81
2022/08/15 11:06:07;;;;;;;8.00;3.00;;;31.10;83.90;;;;;;4990710;28;20445;-81
2022/08/15 11:08:36;;;;;;;8.63;2.78;;;32.10;80.60;;;;;;4987117;28;20052;-81
2022/08/15 11:11:09;;;;;;;8.35;3.00;;;31.60;80.20;;;;;;4988598;28;20075;-82
2022/08/15 11:13:36;;;;;;;7.60;2.95;;;30.80;80.70;;;;;;4990658;28;20117;-81
2022/08/15 11:16:23;;;;;;;8.98;3.00;;;30.70;81.80;;;;;;4987970;28;20112;-81
2022/08/15 11:18:52;;;;;;;8.10;2.90;;;30.20;82.20;;;;;;4986120;28;20057;-81
2022/08/15 11:21:43;;;;;;;10.10;3.00;;;30.00;83.10;;;;;;5001102;28;20035;-81
2022/08/15 11:24:10;;;;;;;8.25;3.13;;;30.30;84.10;;;;;;4987709;28;20023;-81
2022/08/15 11:26:44;;;;;;;11.38;3.30;;;30.70;83.00;;;;;;4983789;28;20452;-81
2022/08/15 11:29:23;;;;;;;7.97;2.97;;;30.70;83.00;;;;;;4983297;28;20038;-81
2022/08/15 11:31:48;;;;;;;8.25;3.10;;;30.50;82.50;;;;;;4979582;28;20029;-83
2022/08/15 11:34:22;;;;;;;7.28;2.88;;;30.30;82.10;;;;;;4978971;28;20023;-81
2022/08/15 11:36:49;;;;;;;7.68;2.70;;;29.90;83.00;;;;;;4994528;28;20030;-82
2022/08/15 11:39:18;;;;;;;8.70;3.17;;;30.20;81.60;;;;;;4981676;28;20594;-82
2022/08/15 11:41:51;;;;;;;7.27;3.03;;;30.00;82.40;;;;;;4986575;28;20507;-81
2022/08/15 11:44:18;;;;;;;7.43;2.88;;;30.20;83.60;;;;;;4989983;28;20269;-82
2022/08/15 11:46:45;;;;;;;9.57;3.50;;;30.30;82.90;;;;;;4989835;28;20415;-81
2022/08/15 11:49:31;;;;;;;7.10;2.92;;;30.60;83.20;;;;;;4987550;28;20035;-82
2022/08/15 11:52:06;;;;;;;8.60;4.15;;;31.60;82.00;;;;;;4990479;28;20064;-83
2022/08/15 11:54:32;;;;;;;7.53;3.40;;;31.40;81.50;;;;;;4987214;28;20061;-82
2022/08/15 11:57:04;;;;;;;8.75;3.20;;;31.40;82.10;;;;;;4984556;28;20018;-81
2022/08/15 11:59:39;;;;;;;8.48;3.10;;;31.00;81.80;;;;;;4984418;28;20442;-82
2022/08/15 12:02:12;;;;;;;10.15;3.00;;;29.90;83.00;;;;;;4988370;28;20034;-81
2022/08/15 12:04:44;;;;;;;8.38;3.00;;;29.70;83.40;;;;;;4990455;28;20599;-82
2022/08/15 12:07:15;;;;;;;11.18;3.42;;;29.60;83.70;;;;;;4984680;28;20047;-81
2022/08/15 12:09:56;;;;;;;10.55;3.20;;;29.30;84.70;;;;;;4985204;28;20037;-81
2022/08/15 12:12:45;;;;;;;9.15;3.30;;;29.30;85.10;;;;;;4986560;28;20038;-81
2022/08/15 12:15:37;;;;;;;;;;;29.00;87.10;;;;;;4991856;28;20105;-81
2022/08/15 12:18:32;;;;;;;9.80;3.17;;;29.00;85.80;;;;;;4989923;28;19922;-81
2022/08/15 12:21:01;;;;;;;9.57;3.13;;;28.70;86.50;;;;;;4990418;28;20015;-81
2022/08/15 12:23:35;;;;;;;8.05;3.35;;;28.40;87.90;;;;;;4986104;28;20262;-81
2022/08/15 12:26:04;;;;;;;8.98;3.00;;;28.30;88.50;;;;;;4984125;28;20090;-81
2022/08/15 12:28:31;;;;;;;6.95;2.63;;;27.90;90.10;;;;;;4988055;28;20362;-82
2022/08/15 12:31:17;;;;;;;15.57;3.08;;;27.70;90.50;;;;;;4985770;28;20031;-81
2022/08/15 12:33:44;;;;;;;9.57;3.00;;;27.30;91.30;;;;;;4994926;28;20067;-81
2022/08/15 12:36:11;;;;;;;8.25;3.28;;;27.30;90.80;;;;;;4978077;28;20395;-82
2022/08/15 12:38:37;;;;;;;7.43;2.60;;;27.20;90.90;;;;;;4991383;28;20030;-82
2022/08/15 12:41:03;;;;;;;9.07;3.50;;;27.50;90.70;;;;;;4986996;28;20027;-82
2022/08/15 12:43:29;;;;;;;11.68;2.72;;;27.70;90.90;;;;;;4982688;28;20094;-81
2022/08/15 12:45:55;;;;;;;7.43;3.17;;;27.70;90.40;;;;;;4987723;28;20490;-81
2022/08/15 12:48:26;;;;;;;7.22;3.03;;;27.40;91.30;;;;;;4992800;28;20015;-82
2022/08/15 12:50:52;;;;;;;11.18;3.45;;;27.50;92.00;;;;;;4987583;28;20623;-82
2022/08/15 12:53:18;;;;;;;8.98;2.95;;;27.20;91.60;;;;;;4991709;28;20030;-82
2022/08/15 12:55:48;;;;;;;8.75;2.97;;;27.20;91.80;;;;;;4984535;28;20050;-82
2022/08/15 12:58:18;;;;;;;8.00;3.25;;;27.40;91.70;;;;;;4983542;28;20018;-81
2022/08/15 13:00:49;;;;;;;10.55;3.20;;;27.30;91.50;;;;;;4984772;28;20104;-82
2022/08/15 13:03:19;;;;;;;8.30;2.80;;;27.10;91.70;;;;;;4990703;28;20033;-82
2022/08/15 13:05:50;;;;;;;8.27;3.42;;;27.00;92.10;;;;;;4990251;28;20114;-82
2022/08/15 13:08:15;;;;;;;8.18;3.90;;;26.80;92.60;;;;;;4989005;28;20495;-82
2022/08/15 13:10:41;;;;;;;9.55;3.40;;;27.00;92.50;;;;;;4985445;28;20050;-81
2022/08/15 13:13:07;;;;;;;9.52;3.35;;;27.00;92.40;;;;;;4992270;28;20022;-81
2022/08/15 13:15:32;;;;;;;8.05;3.60;;;27.20;92.50;;;;;;4991722;28;20022;-81
2022/08/15 13:17:59;;;;;;;8.55;3.40;;;27.30;92.50;;;;;;5004991;28;20022;-81